Jamestown, Pennsylvania
Current Conditions -  °F | °C
As of 9:53 AM on Wednesday 22 Oct 2014 (Local Time) from KGKJ Reporting Station
Overcast Overcast  
Wind Chill: 39°   Ceiling: 900
Heat Index: 45°   Visibility: 10mi
Dew Point: 40°   Wind: 13mph
Humidity: 82%   Direction: 10°N
Pressure: 30.19"   Gusts: 20mph
Location:  41.48°N, 80.44°W
Report Text: KGKJ 221353Z AUTO 01011G17KT 10SM OVC009 07/04 A3019 RMK AO2 CIG 007V012 SLP228 T00720044 TSNO
Loading
Personal Weather Stations






























Interactive Weather Map
Tropical Storm Tracking
New forecast layout! Learn more

10-Day Weather Forecast

Advertisements
Track Severe Weather on mobile